sensor_id;sensor_type;location;lat;lon;timestamp;P1;durP1;ratioP1;P2;durP2;ratioP2
45254;SDS011;30989;52.078;21.014;2023-04-16T00:02:00;5.35;;;3.15;;
45254;SDS011;30989;52.078;21.014;2023-04-16T00:04:25;4.80;;;2.50;;
45254;SDS011;30989;52.078;21.014;2023-04-16T00:06:51;7.72;;;3.65;;
45254;SDS011;30989;52.078;21.014;2023-04-16T00:09:16;6.45;;;2.95;;
45254;SDS011;30989;52.078;21.014;2023-04-16T00:11:42;6.50;;;3.22;;
45254;SDS011;30989;52.078;21.014;2023-04-16T00:14:07;6.80;;;3.75;;
45254;SDS011;30989;52.078;21.014;2023-04-16T00:16:32;8.93;;;4.18;;
45254;SDS011;30989;52.078;21.014;2023-04-16T00:18:58;7.72;;;4.30;;
45254;SDS011;30989;52.078;21.014;2023-04-16T00:21:23;6.55;;;2.80;;
45254;SDS011;30989;52.078;21.014;2023-04-16T00:23:50;5.75;;;3.15;;
45254;SDS011;30989;52.078;21.014;2023-04-16T00:26:15;6.97;;;3.75;;
45254;SDS011;30989;52.078;21.014;2023-04-16T00:28:43;5.60;;;3.47;;
45254;SDS011;30989;52.078;21.014;2023-04-16T00:31:09;6.13;;;3.63;;
45254;SDS011;30989;52.078;21.014;2023-04-16T00:33:34;6.78;;;3.90;;
45254;SDS011;30989;52.078;21.014;2023-04-16T00:36:00;8.18;;;3.95;;
45254;SDS011;30989;52.078;21.014;2023-04-16T00:38:25;8.63;;;3.72;;
45254;SDS011;30989;52.078;21.014;2023-04-16T00:40:54;8.73;;;3.20;;
45254;SDS011;30989;52.078;21.014;2023-04-16T00:43:23;7.00;;;3.55;;
45254;SDS011;30989;52.078;21.014;2023-04-16T00:45:49;5.38;;;2.67;;
45254;SDS011;30989;52.078;21.014;2023-04-16T00:48:16;5.80;;;3.50;;
45254;SDS011;30989;52.078;21.014;2023-04-16T00:50:42;6.70;;;3.67;;
45254;SDS011;30989;52.078;21.014;2023-04-16T00:53:07;4.47;;;2.83;;
45254;SDS011;30989;52.078;21.014;2023-04-16T00:55:33;6.35;;;3.78;;
45254;SDS011;30989;52.078;21.014;2023-04-16T00:57:59;5.78;;;3.85;;
45254;SDS011;30989;52.078;21.014;2023-04-16T01:00:24;5.35;;;2.70;;
45254;SDS011;30989;52.078;21.014;2023-04-16T01:02:51;4.70;;;2.60;;
45254;SDS011;30989;52.078;21.014;2023-04-16T01:05:18;7.05;;;3.08;;
45254;SDS011;30989;52.078;21.014;2023-04-16T01:07:44;8.35;;;3.60;;
45254;SDS011;30989;52.078;21.014;2023-04-16T01:10:10;4.95;;;2.85;;
45254;SDS011;30989;52.078;21.014;2023-04-16T01:12:35;8.65;;;4.00;;
45254;SDS011;30989;52.078;21.014;2023-04-16T01:15:01;6.25;;;3.85;;
45254;SDS011;30989;52.078;21.014;2023-04-16T01:17:27;6.68;;;3.70;;
45254;SDS011;30989;52.078;21.014;2023-04-16T01:19:52;6.50;;;3.47;;
45254;SDS011;30989;52.078;21.014;2023-04-16T01:22:18;5.63;;;3.88;;
45254;SDS011;30989;52.078;21.014;2023-04-16T01:24:43;13.07;;;4.85;;
45254;SDS011;30989;52.078;21.014;2023-04-16T01:27:09;6.00;;;3.63;;
45254;SDS011;30989;52.078;21.014;2023-04-16T01:29:35;6.35;;;3.58;;
45254;SDS011;30989;52.078;21.014;2023-04-16T01:32:00;5.93;;;2.97;;
45254;SDS011;30989;52.078;21.014;2023-04-16T01:34:34;5.47;;;3.85;;
45254;SDS011;30989;52.078;21.014;2023-04-16T01:37:00;5.68;;;3.40;;
45254;SDS011;30989;52.078;21.014;2023-04-16T01:39:26;6.68;;;3.75;;
45254;SDS011;30989;52.078;21.014;2023-04-16T01:41:51;6.38;;;3.55;;
45254;SDS011;30989;52.078;21.014;2023-04-16T01:44:17;8.40;;;4.35;;
45254;SDS011;30989;52.078;21.014;2023-04-16T01:46:42;9.23;;;4.72;;
45254;SDS011;30989;52.078;21.014;2023-04-16T01:49:09;6.93;;;4.28;;
45254;SDS011;30989;52.078;21.014;2023-04-16T01:51:34;5.80;;;3.65;;
45254;SDS011;30989;52.078;21.014;2023-04-16T01:54:00;7.70;;;3.90;;
45254;SDS011;30989;52.078;21.014;2023-04-16T01:56:25;7.03;;;4.60;;
45254;SDS011;30989;52.078;21.014;2023-04-16T01:58:51;6.38;;;4.07;;
45254;SDS011;30989;52.078;21.014;2023-04-16T02:01:18;9.38;;;5.30;;
45254;SDS011;30989;52.078;21.014;2023-04-16T02:03:45;8.23;;;4.85;;
45254;SDS011;30989;52.078;21.014;2023-04-16T02:06:11;6.82;;;4.05;;
45254;SDS011;30989;52.078;21.014;2023-04-16T02:08:36;8.20;;;4.60;;
45254;SDS011;30989;52.078;21.014;2023-04-16T02:11:02;7.30;;;4.32;;
45254;SDS011;30989;52.078;21.014;2023-04-16T02:13:28;7.85;;;4.30;;
45254;SDS011;30989;52.078;21.014;2023-04-16T02:15:53;10.70;;;5.13;;
45254;SDS011;30989;52.078;21.014;2023-04-16T02:18:28;9.15;;;5.07;;
45254;SDS011;30989;52.078;21.014;2023-04-16T02:20:54;8.00;;;4.82;;
45254;SDS011;30989;52.078;21.014;2023-04-16T02:23:22;9.25;;;5.40;;
45254;SDS011;30989;52.078;21.014;2023-04-16T02:25:48;7.82;;;4.97;;
45254;SDS011;30989;52.078;21.014;2023-04-16T02:28:14;8.75;;;4.72;;
45254;SDS011;30989;52.078;21.014;2023-04-16T02:30:42;7.32;;;4.18;;
45254;SDS011;30989;52.078;21.014;2023-04-16T02:33:10;7.13;;;4.47;;
45254;SDS011;30989;52.078;21.014;2023-04-16T02:35:39;10.77;;;5.70;;
45254;SDS011;30989;52.078;21.014;2023-04-16T02:38:06;7.00;;;4.38;;
45254;SDS011;30989;52.078;21.014;2023-04-16T02:40:33;12.63;;;5.25;;
45254;SDS011;30989;52.078;21.014;2023-04-16T02:42:59;8.30;;;4.90;;
45254;SDS011;30989;52.078;21.014;2023-04-16T02:45:25;8.43;;;5.22;;
45254;SDS011;30989;52.078;21.014;2023-04-16T02:47:51;6.57;;;3.63;;
45254;SDS011;30989;52.078;21.014;2023-04-16T02:50:17;7.20;;;4.50;;
45254;SDS011;30989;52.078;21.014;2023-04-16T02:52:42;10.10;;;6.07;;
45254;SDS011;30989;52.078;21.014;2023-04-16T02:55:08;12.38;;;6.20;;
45254;SDS011;30989;52.078;21.014;2023-04-16T02:57:34;9.23;;;5.13;;
45254;SDS011;30989;52.078;21.014;2023-04-16T03:00:00;6.45;;;3.75;;
45254;SDS011;30989;52.078;21.014;2023-04-16T03:02:26;6.28;;;4.15;;
45254;SDS011;30989;52.078;21.014;2023-04-16T03:04:52;10.43;;;4.35;;
45254;SDS011;30989;52.078;21.014;2023-04-16T03:07:18;9.48;;;4.55;;
45254;SDS011;30989;52.078;21.014;2023-04-16T03:09:44;8.63;;;4.90;;
45254;SDS011;30989;52.078;21.014;2023-04-16T03:12:09;8.15;;;4.28;;
45254;SDS011;30989;52.078;21.014;2023-04-16T03:14:35;7.78;;;4.55;;
45254;SDS011;30989;52.078;21.014;2023-04-16T03:17:00;10.38;;;5.72;;
45254;SDS011;30989;52.078;21.014;2023-04-16T03:19:25;11.25;;;5.88;;
45254;SDS011;30989;52.078;21.014;2023-04-16T03:21:51;9.30;;;5.63;;
45254;SDS011;30989;52.078;21.014;2023-04-16T03:24:16;10.80;;;6.13;;
45254;SDS011;30989;52.078;21.014;2023-04-16T03:26:42;9.50;;;6.22;;
45254;SDS011;30989;52.078;21.014;2023-04-16T03:29:08;8.35;;;4.97;;
45254;SDS011;30989;52.078;21.014;2023-04-16T03:31:34;11.70;;;6.47;;
45254;SDS011;30989;52.078;21.014;2023-04-16T03:34:00;11.68;;;6.57;;
45254;SDS011;30989;52.078;21.014;2023-04-16T03:36:25;11.38;;;5.78;;
45254;SDS011;30989;52.078;21.014;2023-04-16T03:38:51;8.43;;;5.00;;
45254;SDS011;30989;52.078;21.014;2023-04-16T03:41:17;10.40;;;6.13;;
45254;SDS011;30989;52.078;21.014;2023-04-16T03:43:43;10.82;;;4.63;;
45254;SDS011;30989;52.078;21.014;2023-04-16T03:46:09;10.38;;;5.40;;
45254;SDS011;30989;52.078;21.014;2023-04-16T03:48:35;7.80;;;4.70;;
45254;SDS011;30989;52.078;21.014;2023-04-16T03:51:02;9.43;;;5.13;;
45254;SDS011;30989;52.078;21.014;2023-04-16T03:53:27;9.20;;;5.70;;
45254;SDS011;30989;52.078;21.014;2023-04-16T03:55:53;6.93;;;4.10;;
45254;SDS011;30989;52.078;21.014;2023-04-16T03:58:20;9.35;;;5.05;;
45254;SDS011;30989;52.078;21.014;2023-04-16T04:00:46;9.98;;;4.53;;
45254;SDS011;30989;52.078;21.014;2023-04-16T04:03:13;11.40;;;5.78;;
45254;SDS011;30989;52.078;21.014;2023-04-16T04:05:44;11.32;;;5.88;;
45254;SDS011;30989;52.078;21.014;2023-04-16T04:08:12;11.93;;;5.93;;
45254;SDS011;30989;52.078;21.014;2023-04-16T04:10:37;11.70;;;5.53;;
45254;SDS011;30989;52.078;21.014;2023-04-16T04:13:04;11.77;;;6.95;;
45254;SDS011;30989;52.078;21.014;2023-04-16T04:15:32;10.10;;;5.00;;
45254;SDS011;30989;52.078;21.014;2023-04-16T04:17:57;9.85;;;5.35;;
45254;SDS011;30989;52.078;21.014;2023-04-16T04:20:23;10.85;;;5.32;;
45254;SDS011;30989;52.078;21.014;2023-04-16T04:22:50;12.75;;;5.80;;
45254;SDS011;30989;52.078;21.014;2023-04-16T04:25:17;9.25;;;4.82;;
45254;SDS011;30989;52.078;21.014;2023-04-16T04:27:43;8.93;;;5.10;;
45254;SDS011;30989;52.078;21.014;2023-04-16T04:30:08;10.07;;;4.70;;
45254;SDS011;30989;52.078;21.014;2023-04-16T04:32:34;9.23;;;5.10;;
45254;SDS011;30989;52.078;21.014;2023-04-16T04:35:00;10.48;;;5.80;;
45254;SDS011;30989;52.078;21.014;2023-04-16T04:37:27;10.05;;;5.32;;
45254;SDS011;30989;52.078;21.014;2023-04-16T04:39:53;9.98;;;5.43;;
45254;SDS011;30989;52.078;21.014;2023-04-16T04:42:19;9.30;;;5.30;;
45254;SDS011;30989;52.078;21.014;2023-04-16T04:44:45;11.40;;;5.88;;
45254;SDS011;30989;52.078;21.014;2023-04-16T04:47:11;12.07;;;6.65;;
45254;SDS011;30989;52.078;21.014;2023-04-16T04:49:38;11.35;;;5.93;;
45254;SDS011;30989;52.078;21.014;2023-04-16T04:52:03;11.25;;;5.75;;
45254;SDS011;30989;52.078;21.014;2023-04-16T04:54:30;8.73;;;5.18;;
45254;SDS011;30989;52.078;21.014;2023-04-16T04:56:56;10.70;;;6.20;;
45254;SDS011;30989;52.078;21.014;2023-04-16T04:59:22;8.85;;;4.70;;
45254;SDS011;30989;52.078;21.014;2023-04-16T05:01:48;9.32;;;5.22;;
45254;SDS011;30989;52.078;21.014;2023-04-16T05:04:14;8.43;;;4.97;;
45254;SDS011;30989;52.078;21.014;2023-04-16T05:06:40;10.75;;;5.97;;
45254;SDS011;30989;52.078;21.014;2023-04-16T05:09:06;14.18;;;6.07;;
45254;SDS011;30989;52.078;21.014;2023-04-16T05:11:35;8.75;;;4.85;;
45254;SDS011;30989;52.078;21.014;2023-04-16T05:14:02;7.20;;;4.97;;
45254;SDS011;30989;52.078;21.014;2023-04-16T05:16:29;11.65;;;5.85;;
45254;SDS011;30989;52.078;21.014;2023-04-16T05:18:55;8.65;;;5.25;;
45254;SDS011;30989;52.078;21.014;2023-04-16T05:21:20;11.13;;;5.57;;
45254;SDS011;30989;52.078;21.014;2023-04-16T05:23:46;10.35;;;6.10;;
45254;SDS011;30989;52.078;21.014;2023-04-16T05:26:11;12.90;;;6.53;;
45254;SDS011;30989;52.078;21.014;2023-04-16T05:28:37;9.50;;;5.25;;
45254;SDS011;30989;52.078;21.014;2023-04-16T05:31:02;9.35;;;5.57;;
45254;SDS011;30989;52.078;21.014;2023-04-16T05:33:28;10.05;;;4.78;;
45254;SDS011;30989;52.078;21.014;2023-04-16T05:35:53;9.80;;;6.07;;
45254;SDS011;30989;52.078;21.014;2023-04-16T05:38:19;9.20;;;5.57;;
45254;SDS011;30989;52.078;21.014;2023-04-16T05:40:44;11.48;;;5.97;;
45254;SDS011;30989;52.078;21.014;2023-04-16T05:43:09;8.40;;;4.85;;
45254;SDS011;30989;52.078;21.014;2023-04-16T05:45:35;10.73;;;5.43;;
45254;SDS011;30989;52.078;21.014;2023-04-16T05:48:05;8.70;;;4.82;;
45254;SDS011;30989;52.078;21.014;2023-04-16T05:50:32;9.40;;;5.00;;
45254;SDS011;30989;52.078;21.014;2023-04-16T05:52:58;8.82;;;4.68;;
45254;SDS011;30989;52.078;21.014;2023-04-16T05:55:24;7.75;;;4.65;;
45254;SDS011;30989;52.078;21.014;2023-04-16T05:57:49;8.75;;;4.63;;
45254;SDS011;30989;52.078;21.014;2023-04-16T06:00:15;9.60;;;5.25;;
45254;SDS011;30989;52.078;21.014;2023-04-16T06:02:41;8.77;;;4.78;;
45254;SDS011;30989;52.078;21.014;2023-04-16T06:05:06;7.95;;;4.40;;
45254;SDS011;30989;52.078;21.014;2023-04-16T06:07:32;8.18;;;4.82;;
45254;SDS011;30989;52.078;21.014;2023-04-16T06:09:57;8.93;;;5.18;;
45254;SDS011;30989;52.078;21.014;2023-04-16T06:12:23;8.55;;;4.93;;
45254;SDS011;30989;52.078;21.014;2023-04-16T06:14:48;7.82;;;4.15;;
45254;SDS011;30989;52.078;21.014;2023-04-16T06:17:13;8.00;;;4.28;;
45254;SDS011;30989;52.078;21.014;2023-04-16T06:19:39;6.55;;;3.90;;
45254;SDS011;30989;52.078;21.014;2023-04-16T06:22:05;6.60;;;3.65;;
45254;SDS011;30989;52.078;21.014;2023-04-16T06:24:30;6.50;;;3.92;;
45254;SDS011;30989;52.078;21.014;2023-04-16T06:26:56;7.05;;;3.88;;
45254;SDS011;30989;52.078;21.014;2023-04-16T06:29:21;7.22;;;3.55;;
45254;SDS011;30989;52.078;21.014;2023-04-16T06:31:47;7.90;;;3.58;;
45254;SDS011;30989;52.078;21.014;2023-04-16T06:34:12;6.43;;;3.58;;
45254;SDS011;30989;52.078;21.014;2023-04-16T06:36:38;6.47;;;3.70;;
45254;SDS011;30989;52.078;21.014;2023-04-16T06:39:03;7.22;;;3.53;;
45254;SDS011;30989;52.078;21.014;2023-04-16T06:41:29;7.88;;;3.25;;
45254;SDS011;30989;52.078;21.014;2023-04-16T06:43:55;8.25;;;4.72;;
45254;SDS011;30989;52.078;21.014;2023-04-16T06:46:20;5.43;;;2.92;;
45254;SDS011;30989;52.078;21.014;2023-04-16T06:48:46;7.45;;;3.08;;
45254;SDS011;30989;52.078;21.014;2023-04-16T06:51:11;5.25;;;2.80;;
45254;SDS011;30989;52.078;21.014;2023-04-16T06:53:37;6.70;;;3.20;;
45254;SDS011;30989;52.078;21.014;2023-04-16T06:56:03;6.28;;;3.65;;
45254;SDS011;30989;52.078;21.014;2023-04-16T06:58:28;6.68;;;3.50;;
45254;SDS011;30989;52.078;21.014;2023-04-16T07:00:54;4.88;;;2.63;;
45254;SDS011;30989;52.078;21.014;2023-04-16T07:03:19;6.22;;;3.65;;
45254;SDS011;30989;52.078;21.014;2023-04-16T07:05:45;7.05;;;3.35;;
45254;SDS011;30989;52.078;21.014;2023-04-16T07:08:10;8.25;;;3.78;;
45254;SDS011;30989;52.078;21.014;2023-04-16T07:10:36;5.18;;;3.00;;
45254;SDS011;30989;52.078;21.014;2023-04-16T07:13:02;5.32;;;2.67;;
45254;SDS011;30989;52.078;21.014;2023-04-16T07:15:28;4.63;;;2.75;;
45254;SDS011;30989;52.078;21.014;2023-04-16T07:17:53;4.90;;;2.80;;
45254;SDS011;30989;52.078;21.014;2023-04-16T07:20:19;4.38;;;2.53;;
45254;SDS011;30989;52.078;21.014;2023-04-16T07:22:45;4.22;;;2.13;;
45254;SDS011;30989;52.078;21.014;2023-04-16T07:25:10;6.90;;;2.72;;
45254;SDS011;30989;52.078;21.014;2023-04-16T07:27:36;6.18;;;3.28;;
45254;SDS011;30989;52.078;21.014;2023-04-16T07:30:01;5.65;;;3.40;;
45254;SDS011;30989;52.078;21.014;2023-04-16T07:32:27;8.20;;;2.95;;
45254;SDS011;30989;52.078;21.014;2023-04-16T07:34:53;5.15;;;2.78;;
45254;SDS011;30989;52.078;21.014;2023-04-16T07:37:19;4.78;;;2.60;;
45254;SDS011;30989;52.078;21.014;2023-04-16T07:39:45;5.38;;;2.85;;
45254;SDS011;30989;52.078;21.014;2023-04-16T07:42:11;5.25;;;2.63;;
45254;SDS011;30989;52.078;21.014;2023-04-16T07:44:36;4.70;;;2.25;;
45254;SDS011;30989;52.078;21.014;2023-04-16T07:47:02;7.20;;;3.17;;
45254;SDS011;30989;52.078;21.014;2023-04-16T07:49:27;11.10;;;5.47;;
45254;SDS011;30989;52.078;21.014;2023-04-16T07:51:53;6.57;;;3.30;;
45254;SDS011;30989;52.078;21.014;2023-04-16T07:54:18;14.38;;;6.70;;
45254;SDS011;30989;52.078;21.014;2023-04-16T07:56:44;7.28;;;3.92;;
45254;SDS011;30989;52.078;21.014;2023-04-16T07:59:10;5.13;;;2.70;;
45254;SDS011;30989;52.078;21.014;2023-04-16T08:01:35;5.55;;;2.92;;
45254;SDS011;30989;52.078;21.014;2023-04-16T08:04:01;5.47;;;2.97;;
45254;SDS011;30989;52.078;21.014;2023-04-16T08:06:27;4.22;;;2.90;;
45254;SDS011;30989;52.078;21.014;2023-04-16T08:08:52;5.13;;;2.83;;
45254;SDS011;30989;52.078;21.014;2023-04-16T08:11:17;6.75;;;3.60;;
45254;SDS011;30989;52.078;21.014;2023-04-16T08:13:43;6.65;;;4.32;;
45254;SDS011;30989;52.078;21.014;2023-04-16T08:16:09;6.30;;;3.47;;
45254;SDS011;30989;52.078;21.014;2023-04-16T08:18:34;6.15;;;3.67;;
45254;SDS011;30989;52.078;21.014;2023-04-16T08:21:00;6.53;;;3.22;;
45254;SDS011;30989;52.078;21.014;2023-04-16T08:23:25;7.30;;;3.25;;
45254;SDS011;30989;52.078;21.014;2023-04-16T08:25:51;9.48;;;3.28;;
45254;SDS011;30989;52.078;21.014;2023-04-16T08:28:16;7.13;;;3.28;;
45254;SDS011;30989;52.078;21.014;2023-04-16T08:30:42;5.80;;;3.53;;
45254;SDS011;30989;52.078;21.014;2023-04-16T08:33:08;6.07;;;3.10;;
45254;SDS011;30989;52.078;21.014;2023-04-16T08:35:34;7.82;;;3.63;;
45254;SDS011;30989;52.078;21.014;2023-04-16T08:37:59;20.80;;;8.50;;
45254;SDS011;30989;52.078;21.014;2023-04-16T08:40:25;6.35;;;3.83;;
45254;SDS011;30989;52.078;21.014;2023-04-16T08:42:54;6.63;;;3.80;;
45254;SDS011;30989;52.078;21.014;2023-04-16T08:45:25;6.30;;;4.15;;
45254;SDS011;30989;52.078;21.014;2023-04-16T08:47:51;5.45;;;3.00;;
45254;SDS011;30989;52.078;21.014;2023-04-16T08:50:23;5.43;;;3.15;;
45254;SDS011;30989;52.078;21.014;2023-04-16T08:52:55;7.32;;;3.65;;
45254;SDS011;30989;52.078;21.014;2023-04-16T08:55:31;7.20;;;3.45;;
45254;SDS011;30989;52.078;21.014;2023-04-16T08:58:13;6.47;;;2.67;;
45254;SDS011;30989;52.078;21.014;2023-04-16T09:00:39;4.90;;;2.92;;
45254;SDS011;30989;52.078;21.014;2023-04-16T09:03:06;7.93;;;3.22;;
45254;SDS011;30989;52.078;21.014;2023-04-16T09:05:33;6.35;;;3.33;;
45254;SDS011;30989;52.078;21.014;2023-04-16T09:07:59;9.52;;;3.53;;
45254;SDS011;30989;52.078;21.014;2023-04-16T09:10:25;6.25;;;3.63;;
45254;SDS011;30989;52.078;21.014;2023-04-16T09:12:51;5.60;;;3.60;;
45254;SDS011;30989;52.078;21.014;2023-04-16T09:15:19;6.65;;;3.42;;
45254;SDS011;30989;52.078;21.014;2023-04-16T09:17:45;5.20;;;3.00;;
45254;SDS011;30989;52.078;21.014;2023-04-16T09:20:11;5.93;;;3.28;;
45254;SDS011;30989;52.078;21.014;2023-04-16T09:22:37;5.10;;;3.05;;
45254;SDS011;30989;52.078;21.014;2023-04-16T09:25:04;6.43;;;3.33;;
45254;SDS011;30989;52.078;21.014;2023-04-16T09:27:31;7.53;;;4.15;;
45254;SDS011;30989;52.078;21.014;2023-04-16T09:29:56;14.38;;;6.53;;
45254;SDS011;30989;52.078;21.014;2023-04-16T09:32:26;5.15;;;3.10;;
45254;SDS011;30989;52.078;21.014;2023-04-16T09:34:56;6.38;;;3.38;;
45254;SDS011;30989;52.078;21.014;2023-04-16T09:37:23;5.55;;;3.08;;
45254;SDS011;30989;52.078;21.014;2023-04-16T09:40:00;5.93;;;3.38;;
45254;SDS011;30989;52.078;21.014;2023-04-16T09:42:28;5.35;;;2.78;;
45254;SDS011;30989;52.078;21.014;2023-04-16T09:44:56;4.43;;;2.50;;
45254;SDS011;30989;52.078;21.014;2023-04-16T09:47:23;6.00;;;3.08;;
45254;SDS011;30989;52.078;21.014;2023-04-16T09:49:50;5.40;;;2.72;;
45254;SDS011;30989;52.078;21.014;2023-04-16T09:52:19;3.78;;;2.50;;
45254;SDS011;30989;52.078;21.014;2023-04-16T09:54:49;4.97;;;2.53;;
45254;SDS011;30989;52.078;21.014;2023-04-16T09:57:20;4.95;;;2.90;;
45254;SDS011;30989;52.078;21.014;2023-04-16T09:59:46;5.80;;;2.50;;
45254;SDS011;30989;52.078;21.014;2023-04-16T10:02:13;4.63;;;2.60;;
45254;SDS011;30989;52.078;21.014;2023-04-16T10:04:48;4.07;;;2.38;;
45254;SDS011;30989;52.078;21.014;2023-04-16T10:07:15;6.63;;;2.58;;
45254;SDS011;30989;52.078;21.014;2023-04-16T10:09:41;4.15;;;2.35;;
45254;SDS011;30989;52.078;21.014;2023-04-16T10:12:07;4.85;;;2.80;;
45254;SDS011;30989;52.078;21.014;2023-04-16T10:14:33;5.88;;;3.25;;
45254;SDS011;30989;52.078;21.014;2023-04-16T10:16:59;3.83;;;2.58;;
45254;SDS011;30989;52.078;21.014;2023-04-16T10:19:25;4.97;;;3.08;;
45254;SDS011;30989;52.078;21.014;2023-04-16T10:21:52;4.55;;;2.25;;
45254;SDS011;30989;52.078;21.014;2023-04-16T10:24:18;6.20;;;3.05;;
45254;SDS011;30989;52.078;21.014;2023-04-16T10:26:44;6.55;;;2.78;;
45254;SDS011;30989;52.078;21.014;2023-04-16T10:29:11;4.70;;;3.20;;
45254;SDS011;30989;52.078;21.014;2023-04-16T10:31:37;5.95;;;3.05;;
45254;SDS011;30989;52.078;21.014;2023-04-16T10:34:04;3.92;;;2.50;;
45254;SDS011;30989;52.078;21.014;2023-04-16T10:36:35;8.45;;;4.43;;
45254;SDS011;30989;52.078;21.014;2023-04-16T10:39:01;5.15;;;2.80;;
45254;SDS011;30989;52.078;21.014;2023-04-16T10:41:27;5.05;;;3.03;;
45254;SDS011;30989;52.078;21.014;2023-04-16T10:44:02;6.57;;;2.80;;
45254;SDS011;30989;52.078;21.014;2023-04-16T10:51:40;4.18;;;2.50;;
45254;SDS011;30989;52.078;21.014;2023-04-16T10:56:38;4.28;;;2.60;;
45254;SDS011;30989;52.078;21.014;2023-04-16T10:59:05;3.65;;;2.42;;
45254;SDS011;30989;52.078;21.014;2023-04-16T11:01:35;4.68;;;2.50;;
45254;SDS011;30989;52.078;21.014;2023-04-16T11:07:02;4.30;;;2.60;;
45254;SDS011;30989;52.078;21.014;2023-04-16T11:12:33;5.90;;;3.28;;
45254;SDS011;30989;52.078;21.014;2023-04-16T11:15:02;6.43;;;4.55;;
45254;SDS011;30989;52.078;21.014;2023-04-16T11:20:16;4.18;;;2.50;;
45254;SDS011;30989;52.078;21.014;2023-04-16T11:22:52;3.38;;;2.10;;
45254;SDS011;30989;52.078;21.014;2023-04-16T11:25:22;3.95;;;2.30;;
45254;SDS011;30989;52.078;21.014;2023-04-16T11:27:49;3.58;;;2.08;;
45254;SDS011;30989;52.078;21.014;2023-04-16T11:30:16;4.32;;;2.58;;
45254;SDS011;30989;52.078;21.014;2023-04-16T11:32:43;3.95;;;2.05;;
45254;SDS011;30989;52.078;21.014;2023-04-16T11:35:14;3.75;;;2.20;;
45254;SDS011;30989;52.078;21.014;2023-04-16T11:37:43;4.68;;;2.30;;
45254;SDS011;30989;52.078;21.014;2023-04-16T11:40:10;4.43;;;2.53;;
45254;SDS011;30989;52.078;21.014;2023-04-16T11:42:37;3.50;;;2.30;;
45254;SDS011;30989;52.078;21.014;2023-04-16T11:45:07;6.25;;;2.22;;
45254;SDS011;30989;52.078;21.014;2023-04-16T11:52:46;3.80;;;1.70;;
45254;SDS011;30989;52.078;21.014;2023-04-16T11:55:12;4.70;;;2.03;;
45254;SDS011;30989;52.078;21.014;2023-04-16T11:57:38;3.08;;;1.73;;
45254;SDS011;30989;52.078;21.014;2023-04-16T12:00:04;3.22;;;1.88;;
45254;SDS011;30989;52.078;21.014;2023-04-16T12:02:48;3.20;;;1.90;;
45254;SDS011;30989;52.078;21.014;2023-04-16T12:05:31;3.72;;;2.17;;
45254;SDS011;30989;52.078;21.014;2023-04-16T12:08:04;3.47;;;2.28;;
45254;SDS011;30989;52.078;21.014;2023-04-16T12:10:35;4.43;;;2.42;;
45254;SDS011;30989;52.078;21.014;2023-04-16T12:13:12;4.80;;;2.58;;
45254;SDS011;30989;52.078;21.014;2023-04-16T12:15:57;3.35;;;1.90;;
45254;SDS011;30989;52.078;21.014;2023-04-16T12:18:23;4.88;;;2.05;;
45254;SDS011;30989;52.078;21.014;2023-04-16T12:20:50;4.03;;;2.42;;
45254;SDS011;30989;52.078;21.014;2023-04-16T12:23:23;3.20;;;1.80;;
45254;SDS011;30989;52.078;21.014;2023-04-16T12:25:50;3.85;;;2.40;;
45254;SDS011;30989;52.078;21.014;2023-04-16T12:28:25;3.17;;;2.22;;
45254;SDS011;30989;52.078;21.014;2023-04-16T12:31:02;3.95;;;2.58;;
45254;SDS011;30989;52.078;21.014;2023-04-16T12:33:29;3.38;;;1.83;;
45254;SDS011;30989;52.078;21.014;2023-04-16T12:35:55;3.10;;;2.05;;
45254;SDS011;30989;52.078;21.014;2023-04-16T12:38:21;3.42;;;2.25;;
45254;SDS011;30989;52.078;21.014;2023-04-16T12:40:46;4.20;;;2.03;;
45254;SDS011;30989;52.078;21.014;2023-04-16T12:43:12;3.58;;;2.03;;
45254;SDS011;30989;52.078;21.014;2023-04-16T12:45:38;4.20;;;2.08;;
45254;SDS011;30989;52.078;21.014;2023-04-16T12:48:04;8.65;;;4.30;;
45254;SDS011;30989;52.078;21.014;2023-04-16T12:50:30;5.25;;;2.60;;
45254;SDS011;30989;52.078;21.014;2023-04-16T12:52:56;4.47;;;2.15;;
45254;SDS011;30989;52.078;21.014;2023-04-16T12:55:23;3.90;;;2.53;;
45254;SDS011;30989;52.078;21.014;2023-04-16T12:57:49;6.38;;;2.70;;
45254;SDS011;30989;52.078;21.014;2023-04-16T13:00:17;3.30;;;2.08;;
45254;SDS011;30989;52.078;21.014;2023-04-16T13:02:43;5.20;;;3.25;;
45254;SDS011;30989;52.078;21.014;2023-04-16T13:05:08;4.72;;;2.63;;
45254;SDS011;30989;52.078;21.014;2023-04-16T13:07:34;3.47;;;2.15;;
45254;SDS011;30989;52.078;21.014;2023-04-16T13:09:59;4.97;;;2.50;;
45254;SDS011;30989;52.078;21.014;2023-04-16T13:12:25;3.92;;;2.30;;
45254;SDS011;30989;52.078;21.014;2023-04-16T13:14:52;3.90;;;2.33;;
45254;SDS011;30989;52.078;21.014;2023-04-16T13:17:17;3.90;;;2.08;;
45254;SDS011;30989;52.078;21.014;2023-04-16T13:19:43;3.50;;;2.20;;
45254;SDS011;30989;52.078;21.014;2023-04-16T13:22:09;5.90;;;3.78;;
45254;SDS011;30989;52.078;21.014;2023-04-16T13:24:34;6.03;;;2.60;;
45254;SDS011;30989;52.078;21.014;2023-04-16T13:27:00;4.97;;;2.50;;
45254;SDS011;30989;52.078;21.014;2023-04-16T13:29:25;4.63;;;2.42;;
45254;SDS011;30989;52.078;21.014;2023-04-16T13:31:51;4.15;;;2.38;;
45254;SDS011;30989;52.078;21.014;2023-04-16T13:34:17;5.97;;;2.30;;
45254;SDS011;30989;52.078;21.014;2023-04-16T13:36:42;4.65;;;2.67;;
45254;SDS011;30989;52.078;21.014;2023-04-16T13:39:07;3.40;;;2.22;;
45254;SDS011;30989;52.078;21.014;2023-04-16T13:41:35;3.60;;;2.35;;
45254;SDS011;30989;52.078;21.014;2023-04-16T13:44:01;3.05;;;1.85;;
45254;SDS011;30989;52.078;21.014;2023-04-16T13:46:27;5.43;;;2.40;;
45254;SDS011;30989;52.078;21.014;2023-04-16T13:48:53;3.30;;;1.92;;
45254;SDS011;30989;52.078;21.014;2023-04-16T13:51:19;4.25;;;2.13;;
45254;SDS011;30989;52.078;21.014;2023-04-16T13:53:45;4.13;;;2.10;;
45254;SDS011;30989;52.078;21.014;2023-04-16T13:56:11;3.38;;;1.92;;
45254;SDS011;30989;52.078;21.014;2023-04-16T13:58:36;4.88;;;2.20;;
45254;SDS011;30989;52.078;21.014;2023-04-16T14:01:02;3.35;;;1.92;;
45254;SDS011;30989;52.078;21.014;2023-04-16T14:03:28;3.08;;;1.88;;
45254;SDS011;30989;52.078;21.014;2023-04-16T14:05:53;3.35;;;2.00;;
45254;SDS011;30989;52.078;21.014;2023-04-16T14:08:19;5.10;;;2.60;;
45254;SDS011;30989;52.078;21.014;2023-04-16T14:10:45;6.88;;;3.83;;
45254;SDS011;30989;52.078;21.014;2023-04-16T14:13:11;5.30;;;3.00;;
45254;SDS011;30989;52.078;21.014;2023-04-16T14:15:37;4.55;;;2.50;;
45254;SDS011;30989;52.078;21.014;2023-04-16T14:18:03;4.20;;;2.50;;
45254;SDS011;30989;52.078;21.014;2023-04-16T14:20:28;5.15;;;2.20;;
45254;SDS011;30989;52.078;21.014;2023-04-16T14:22:54;4.85;;;2.65;;
45254;SDS011;30989;52.078;21.014;2023-04-16T14:25:20;3.60;;;2.40;;
45254;SDS011;30989;52.078;21.014;2023-04-16T14:27:45;4.50;;;2.92;;
45254;SDS011;30989;52.078;21.014;2023-04-16T14:30:11;4.85;;;2.42;;
45254;SDS011;30989;52.078;21.014;2023-04-16T14:32:36;3.33;;;2.28;;
45254;SDS011;30989;52.078;21.014;2023-04-16T14:35:02;5.43;;;2.63;;
45254;SDS011;30989;52.078;21.014;2023-04-16T14:37:28;7.40;;;2.50;;
45254;SDS011;30989;52.078;21.014;2023-04-16T14:39:53;3.88;;;2.55;;
45254;SDS011;30989;52.078;21.014;2023-04-16T14:42:19;3.88;;;2.03;;
45254;SDS011;30989;52.078;21.014;2023-04-16T14:44:44;3.65;;;2.00;;
45254;SDS011;30989;52.078;21.014;2023-04-16T14:47:10;4.10;;;2.28;;
45254;SDS011;30989;52.078;21.014;2023-04-16T14:49:35;5.95;;;2.63;;
45254;SDS011;30989;52.078;21.014;2023-04-16T14:52:01;4.65;;;2.53;;